createdAt,value
2022-11-10T00:01:32.033Z,76.67
2022-11-10T00:03:35.918Z,76.44
2022-11-10T00:05:39.074Z,76.86
2022-11-10T00:07:41.458Z,76.00
2022-11-10T00:09:43.276Z,76.55
2022-11-10T00:11:46.378Z,76.14
2022-11-10T00:14:07.432Z,76.31
2022-11-10T00:16:29.051Z,76.70
2022-11-10T00:18:31.260Z,76.66
2022-11-10T00:20:33.084Z,76.34
2022-11-10T00:22:35.846Z,76.77
2022-11-10T00:24:38.026Z,76.84
2022-11-10T00:26:39.840Z,76.71
2022-11-10T00:28:42.393Z,77.46
2022-11-10T00:30:46.775Z,77.43
2022-11-10T00:32:48.971Z,77.00
2022-11-10T00:34:50.810Z,76.64
2022-11-10T00:36:53.091Z,76.89
2022-11-10T00:38:55.123Z,76.62
2022-11-10T00:40:58.943Z,76.32
2022-11-10T00:43:01.480Z,76.31
2022-11-10T00:45:03.532Z,76.26
2022-11-10T00:47:05.733Z,76.37
2022-11-10T00:49:07.895Z,76.52
2022-11-10T00:51:26.319Z,76.03
2022-11-10T00:53:28.124Z,76.43
2022-11-10T00:55:30.408Z,76.12
2022-11-10T00:57:32.327Z,75.69
2022-11-10T00:59:34.209Z,76.01
2022-11-10T01:01:37.091Z,75.95
2022-11-10T01:03:39.223Z,75.84
2022-11-10T01:05:41.862Z,75.59
2022-11-10T01:07:43.891Z,74.75
2022-11-10T01:09:45.817Z,74.94
2022-11-10T01:11:47.610Z,75.66
2022-11-10T01:13:51.739Z,75.03
2022-11-10T01:15:53.533Z,74.82
2022-11-10T01:17:56.890Z,75.02
2022-11-10T01:19:59.012Z,74.10
2022-11-10T01:22:01.873Z,73.88
2022-11-10T01:24:03.896Z,73.88
2022-11-10T01:26:07.192Z,73.93
2022-11-10T01:28:08.886Z,72.94
2022-11-10T01:30:11.364Z,73.48
2022-11-10T01:32:13.521Z,73.43
2022-11-10T01:34:15.623Z,72.60
2022-11-10T01:36:17.729Z,72.73
2022-11-10T01:38:19.930Z,73.11
2022-11-10T01:40:21.818Z,72.77
2022-11-10T01:42:28.973Z,72.72
2022-11-10T01:44:31.166Z,72.69
2022-11-10T01:46:33.092Z,73.07
2022-11-10T01:48:47.053Z,73.54
2022-11-10T01:50:49.621Z,73.11
2022-11-10T01:52:55.049Z,72.55
2022-11-10T01:54:56.933Z,72.91
2022-11-10T01:57:05.261Z,72.64
2022-11-10T01:59:12.200Z,72.47
2022-11-10T02:01:14.536Z,72.65
2022-11-10T02:03:29.488Z,72.00
2022-11-10T02:05:31.976Z,72.61
2022-11-10T02:07:34.368Z,72.17
2022-11-10T02:09:36.871Z,72.06
2022-11-10T02:11:40.481Z,72.55
2022-11-10T02:13:43.152Z,72.38
2022-11-10T02:15:45.644Z,71.73
2022-11-10T02:17:48.347Z,72.49
2022-11-10T02:19:51.670Z,71.94
2022-11-10T02:21:53.890Z,72.33
2022-11-10T02:23:55.754Z,71.79
2022-11-10T02:25:58.528Z,71.17
2022-11-10T02:28:00.687Z,71.66
2022-11-10T02:30:05.247Z,71.85
2022-11-10T02:32:07.104Z,70.87
2022-11-10T02:34:09.279Z,71.30
2022-11-10T02:36:11.697Z,71.28
2022-11-10T02:38:14.359Z,71.89
2022-11-10T02:40:16.531Z,71.83
2022-11-10T02:42:18.318Z,71.23
2022-11-10T02:44:20.616Z,71.74
2022-11-10T02:46:23.121Z,71.26
2022-11-10T02:48:24.919Z,71.98
2022-11-10T02:50:27.037Z,71.87
2022-11-10T02:52:29.505Z,72.04
2022-11-10T02:54:31.352Z,72.34
2022-11-10T02:56:33.149Z,72.18
2022-11-10T02:58:35.286Z,72.24
2022-11-10T03:00:37.154Z,72.00
2022-11-10T03:02:39.269Z,72.57
2022-11-10T03:04:41.675Z,72.81
2022-11-10T03:06:43.883Z,72.78
2022-11-10T03:08:46.292Z,72.61
2022-11-10T03:10:48.531Z,72.29
2022-11-10T03:12:55.420Z,72.16
2022-11-10T03:14:57.460Z,72.30
2022-11-10T03:16:59.829Z,72.01
2022-11-10T03:19:01.721Z,72.46
2022-11-10T03:21:03.659Z,71.78
2022-11-10T03:23:06.360Z,71.84
2022-11-10T03:25:09.041Z,71.81
2022-11-10T03:27:10.822Z,72.25
2022-11-10T03:29:12.962Z,72.03
2022-11-10T03:31:14.743Z,72.32
2022-11-10T03:33:17.022Z,72.20
2022-11-10T03:35:19.255Z,71.99
2022-11-10T03:37:21.042Z,71.67
2022-11-10T03:39:24.438Z,72.05
2022-11-10T03:41:26.602Z,71.78
2022-11-10T03:43:28.393Z,71.83
2022-11-10T03:45:30.198Z,72.25
2022-11-10T03:47:32.401Z,72.17
2022-11-10T03:49:34.213Z,72.12
2022-11-10T03:51:36.022Z,72.12
2022-11-10T03:53:38.198Z,72.26
2022-11-10T03:55:39.988Z,72.59
2022-11-10T03:57:41.859Z,72.75
2022-11-10T03:59:44.027Z,72.33
2022-11-10T04:01:46.138Z,72.17
2022-11-10T04:03:51.527Z,71.66
2022-11-10T04:06:12.313Z,71.67
2022-11-10T04:08:35.407Z,72.06
2022-11-10T04:10:37.351Z,72.11
2022-11-10T04:12:57.889Z,72.12
2022-11-10T04:15:18.519Z,71.96
2022-11-10T04:17:20.368Z,72.32
2022-11-10T04:19:22.740Z,72.74
2022-11-10T04:21:24.542Z,72.00
2022-11-10T04:23:35.002Z,73.10
2022-11-10T04:25:57.116Z,72.89
2022-11-10T04:27:58.969Z,72.47
2022-11-10T04:30:00.770Z,72.21
2022-11-10T04:32:03.046Z,72.35
2022-11-10T04:34:07.333Z,72.06
2022-11-10T04:36:11.291Z,71.82
2022-11-10T04:38:13.473Z,72.12
2022-11-10T04:40:15.682Z,72.76
2022-11-10T04:42:17.521Z,73.06
2022-11-10T04:44:19.675Z,73.17
2022-11-10T04:46:34.952Z,73.19
2022-11-10T04:48:36.873Z,73.55
2022-11-10T04:50:39.132Z,73.66
2022-11-10T04:52:40.929Z,73.63
2022-11-10T04:54:43.082Z,73.27
2022-11-10T04:56:45.275Z,73.21
2022-11-10T04:58:48.236Z,72.55
2022-11-10T05:00:50.004Z,72.99
2022-11-10T05:02:52.211Z,72.85
2022-11-10T05:04:54.060Z,73.38
2022-11-10T05:06:56.019Z,73.34
2022-11-10T05:08:58.220Z,74.24
2022-11-10T05:11:00.277Z,74.56
2022-11-10T05:13:03.340Z,75.87
2022-11-10T05:15:06.270Z,75.96
2022-11-10T05:17:08.060Z,76.70
2022-11-10T05:19:10.036Z,77.00
2022-11-10T05:21:12.142Z,77.38
2022-11-10T05:23:32.386Z,77.05
2022-11-10T05:25:36.445Z,77.08
2022-11-10T05:27:38.657Z,76.93
2022-11-10T05:29:40.457Z,77.56
2022-11-10T05:31:42.288Z,77.29
2022-11-10T05:33:44.641Z,77.54
2022-11-10T05:35:49.017Z,77.89
2022-11-10T05:37:51.604Z,78.33
2022-11-10T05:39:53.798Z,78.29
2022-11-10T05:41:55.683Z,78.95
2022-11-10T05:43:57.459Z,79.38
2022-11-10T05:45:59.948Z,79.05
2022-11-10T05:48:01.782Z,79.47
2022-11-10T05:50:04.739Z,79.61
2022-11-10T05:52:06.868Z,80.23
2022-11-10T05:54:09.099Z,80.55
2022-11-10T05:56:10.862Z,80.28
2022-11-10T05:58:13.587Z,80.62
2022-11-10T06:00:18.349Z,80.84
2022-11-10T06:02:20.348Z,81.33
2022-11-10T06:04:22.649Z,81.42
2022-11-10T06:06:25.044Z,81.54
2022-11-10T06:08:26.864Z,81.71
2022-11-10T06:10:29.290Z,81.35
2022-11-10T06:12:31.128Z,81.39
2022-11-10T06:14:33.014Z,80.99
2022-11-10T06:16:35.386Z,81.86
2022-11-10T06:18:37.170Z,82.33
2022-11-10T06:20:39.068Z,81.38
2022-11-10T06:22:41.624Z,81.37
2022-11-10T06:24:43.467Z,81.61
2022-11-10T06:26:45.288Z,82.06
2022-11-10T06:28:47.471Z,81.73
2022-11-10T06:30:49.268Z,82.38
2022-11-10T06:32:51.179Z,82.01
2022-11-10T06:34:57.838Z,82.46
2022-11-10T06:37:02.117Z,81.92
2022-11-10T06:39:07.073Z,82.94
2022-11-10T06:41:09.721Z,82.57
2022-11-10T06:43:11.882Z,83.35
2022-11-10T06:45:13.719Z,84.08
2022-11-10T06:47:16.464Z,83.60
2022-11-10T06:49:18.432Z,83.29
2022-11-10T06:51:20.225Z,83.74
2022-11-10T06:53:26.861Z,83.63
2022-11-10T06:55:29.525Z,83.35
2022-11-10T06:57:38.142Z,83.40
2022-11-10T06:59:40.269Z,82.74
2022-11-10T07:01:42.247Z,82.70
2022-11-10T07:04:05.202Z,82.23
2022-11-10T07:06:06.956Z,82.80
2022-11-10T07:08:17.497Z,81.81
2022-11-10T07:10:19.312Z,82.71
2022-11-10T07:12:21.663Z,82.27
2022-11-10T07:14:23.477Z,82.58
2022-11-10T07:16:25.305Z,82.25
2022-11-10T07:18:27.432Z,82.42
2022-11-10T07:20:30.383Z,83.46
2022-11-10T07:22:32.410Z,83.78
2022-11-10T07:24:34.937Z,84.50
2022-11-10T07:26:36.785Z,84.27
2022-11-10T07:28:39.093Z,84.43
2022-11-10T07:30:41.675Z,84.08
2022-11-10T07:32:43.859Z,84.06
2022-11-10T07:34:46.034Z,84.81
2022-11-10T07:36:48.412Z,85.72
2022-11-10T07:38:50.210Z,84.51
2022-11-10T07:40:53.896Z,83.56
2022-11-10T07:42:56.142Z,84.11
2022-11-10T07:44:57.960Z,83.56
2022-11-10T07:46:59.969Z,84.01
2022-11-10T07:49:02.202Z,84.17
2022-11-10T07:51:04.598Z,82.19
2022-11-10T07:53:08.694Z,83.46
2022-11-10T07:55:11.040Z,82.55
2022-11-10T07:57:12.927Z,83.38
2022-11-10T07:59:14.809Z,82.36
2022-11-10T08:01:17.079Z,83.10
2022-11-10T08:03:21.782Z,83.21
2022-11-10T08:05:24.012Z,83.15
2022-11-10T08:07:26.236Z,84.29
2022-11-10T08:09:28.449Z,83.56
2022-11-10T08:11:30.370Z,81.94
2022-11-10T08:13:32.588Z,82.97
2022-11-10T08:15:35.070Z,83.17
2022-11-10T08:17:36.969Z,83.54
2022-11-10T08:19:39.098Z,83.49
2022-11-10T08:21:40.926Z,83.10
2022-11-10T08:23:42.902Z,83.70
2022-11-10T08:25:46.848Z,82.97
2022-11-10T08:27:48.735Z,83.23
2022-11-10T08:29:50.594Z,83.90
2022-11-10T08:31:53.273Z,83.29
2022-11-10T08:33:55.088Z,84.07
2022-11-10T08:35:56.927Z,84.06
2022-11-10T08:37:59.044Z,83.65
2022-11-10T08:40:00.850Z,83.86
2022-11-10T08:42:02.825Z,83.42
2022-11-10T08:44:08.167Z,83.26
2022-11-10T08:46:12.658Z,83.50
2022-11-10T08:48:16.832Z,83.09
2022-11-10T08:50:19.110Z,84.25
2022-11-10T08:52:20.927Z,83.04
2022-11-10T08:54:22.779Z,83.81
2022-11-10T08:56:24.924Z,82.41
2022-11-10T08:58:26.814Z,83.31
2022-11-10T09:00:30.708Z,82.02
2022-11-10T09:02:32.908Z,83.75
2022-11-10T09:04:34.782Z,81.51
2022-11-10T09:06:36.630Z,81.38
2022-11-10T09:08:38.899Z,81.07
2022-11-10T09:10:51.100Z,80.82
2022-11-10T09:12:52.978Z,80.18
2022-11-10T09:14:55.825Z,80.69
2022-11-10T09:16:57.658Z,80.07
2022-11-10T09:18:59.498Z,78.24
2022-11-10T09:21:03.577Z,79.95
2022-11-10T09:23:13.958Z,80.14
2022-11-10T09:25:16.133Z,78.98
2022-11-10T09:27:18.582Z,78.56
2022-11-10T09:29:21.295Z,79.43
2022-11-10T09:31:23.599Z,79.47
2022-11-10T09:33:26.325Z,79.05
2022-11-10T09:35:28.510Z,78.72
2022-11-10T09:37:30.823Z,78.73
2022-11-10T09:39:33.296Z,78.75
2022-11-10T09:41:40.196Z,79.48
2022-11-10T09:43:58.445Z,80.31
2022-11-10T09:46:04.930Z,78.07
2022-11-10T09:48:31.254Z,79.70
2022-11-10T09:51:11.013Z,79.77
2022-11-10T09:53:21.411Z,79.45
2022-11-10T09:55:52.301Z,79.35
2022-11-10T09:57:57.111Z,78.57
2022-11-10T09:59:59.692Z,77.85
2022-11-10T10:02:16.427Z,77.95
2022-11-10T10:04:56.004Z,78.03
2022-11-10T10:07:22.932Z,78.34
2022-11-10T10:10:00.079Z,78.14
2022-11-10T10:12:28.270Z,78.86
2022-11-10T10:14:58.595Z,78.76
2022-11-10T10:17:04.463Z,77.74
2022-11-10T10:19:14.015Z,77.29
2022-11-10T10:21:49.298Z,77.47
2022-11-10T10:24:15.240Z,77.79
2022-11-10T10:26:21.676Z,76.40
2022-11-10T10:28:23.958Z,76.29
2022-11-10T10:30:26.090Z,76.39
2022-11-10T10:32:28.879Z,75.20
2022-11-10T10:34:34.612Z,74.20
2022-11-10T10:36:36.504Z,74.84
2022-11-10T10:38:40.221Z,73.91
2022-11-10T10:40:44.288Z,72.60
2022-11-10T10:42:46.605Z,73.45
2022-11-10T10:45:18.490Z,71.17
2022-11-10T10:47:36.149Z,71.55
2022-11-10T10:49:37.967Z,72.02
2022-11-10T10:51:40.449Z,71.09
2022-11-10T10:53:47.694Z,71.58
2022-11-10T10:56:02.210Z,71.32
2022-11-10T10:58:20.327Z,70.76
2022-11-10T11:00:23.544Z,70.41
2022-11-10T11:02:29.861Z,69.04
2022-11-10T11:04:37.032Z,68.79
2022-11-10T11:06:39.003Z,68.20
2022-11-10T11:08:58.172Z,68.46
2022-11-10T11:11:11.571Z,68.71
2022-11-10T11:13:27.251Z,67.71
2022-11-10T11:15:30.465Z,68.21
2022-11-10T11:17:32.689Z,68.97
2022-11-10T11:19:37.512Z,69.03
2022-11-10T11:21:50.638Z,69.03
2022-11-10T11:24:10.900Z,69.14
2022-11-10T11:26:50.432Z,68.88
2022-11-10T11:29:21.618Z,67.31
2022-11-10T11:31:43.222Z,67.50
2022-11-10T11:34:10.087Z,66.12
2022-11-10T11:36:46.821Z,67.58
2022-11-10T11:39:04.298Z,67.42
2022-11-10T11:41:30.690Z,67.17
2022-11-10T11:43:57.688Z,67.60
2022-11-10T11:46:12.580Z,67.57
2022-11-10T11:48:39.022Z,68.77
2022-11-10T11:50:50.596Z,67.94
2022-11-10T11:53:19.009Z,67.98
2022-11-10T11:55:34.071Z,66.82
2022-11-10T11:57:44.193Z,68.97
2022-11-10T12:00:06.018Z,68.95
2022-11-10T12:02:50.100Z,68.01
2022-11-10T12:05:13.302Z,68.91
2022-11-10T12:07:35.652Z,67.54
2022-11-10T12:09:46.185Z,67.15
2022-11-10T12:12:13.782Z,67.23
2022-11-10T12:14:34.934Z,66.00
2022-11-10T12:16:38.698Z,65.26
2022-11-10T12:19:22.406Z,66.61
2022-11-10T12:21:28.195Z,66.50
2022-11-10T12:23:47.954Z,66.67
2022-11-10T12:25:59.851Z,66.21
2022-11-10T12:28:14.254Z,66.08
2022-11-10T12:30:17.769Z,66.96
2022-11-10T12:32:28.347Z,67.60
2022-11-10T12:34:48.189Z,67.53
2022-11-10T12:36:51.794Z,67.30
2022-11-10T12:39:01.340Z,67.68
2022-11-10T12:41:11.139Z,67.61
2022-11-10T12:43:44.066Z,66.60
2022-11-10T12:45:51.218Z,67.46
2022-11-10T12:47:54.486Z,66.62
2022-11-10T12:50:11.652Z,67.19
2022-11-10T12:52:13.779Z,67.97
2022-11-10T12:54:17.917Z,67.86
2022-11-10T12:56:31.897Z,68.18
2022-11-10T12:58:34.175Z,68.56
2022-11-10T13:00:44.114Z,66.71
2022-11-10T13:02:46.951Z,67.81
2022-11-10T13:05:10.055Z,66.21
2022-11-10T13:07:13.797Z,67.12
2022-11-10T13:09:29.442Z,66.24
2022-11-10T13:11:34.804Z,65.65
2022-11-10T13:13:59.457Z,66.26
2022-11-10T13:16:01.838Z,67.18
2022-11-10T13:18:05.613Z,66.81
2022-11-10T13:20:39.305Z,67.85
2022-11-10T13:22:41.668Z,68.15
2022-11-10T13:24:44.494Z,68.70
2022-11-10T13:26:49.796Z,68.04
2022-11-10T13:28:51.603Z,68.18
2022-11-10T13:30:53.773Z,67.89
2022-11-10T13:33:15.648Z,67.44
2022-11-10T13:35:29.736Z,68.27
2022-11-10T13:37:34.671Z,68.44
2022-11-10T13:39:36.683Z,68.37
2022-11-10T13:41:48.460Z,68.43
2022-11-10T13:43:53.251Z,68.76
2022-11-10T13:46:03.677Z,68.60
2022-11-10T13:48:11.549Z,68.86
2022-11-10T13:50:28.762Z,68.42
2022-11-10T13:52:43.028Z,68.93
2022-11-10T13:54:58.851Z,68.95
2022-11-10T13:57:11.816Z,68.74
2022-11-10T13:59:28.961Z,69.34
2022-11-10T14:01:30.987Z,69.42
2022-11-10T14:03:45.387Z,69.13
2022-11-10T14:06:04.778Z,68.97
2022-11-10T14:08:09.596Z,69.16
2022-11-10T14:10:17.125Z,69.44
2022-11-10T14:12:28.725Z,69.68
2022-11-10T14:14:35.699Z,70.11
2022-11-10T14:16:42.314Z,69.88
2022-11-10T14:19:22.964Z,70.40
2022-11-10T14:21:33.522Z,71.32
2022-11-10T14:23:45.505Z,71.27
2022-11-10T14:25:55.982Z,72.01
2022-11-10T14:27:58.624Z,73.06
2022-11-10T14:30:24.672Z,73.48
2022-11-10T14:32:27.011Z,73.24
2022-11-10T14:34:30.635Z,73.49
2022-11-10T14:36:33.072Z,73.98
2022-11-10T14:38:37.206Z,74.90
2022-11-10T14:40:41.941Z,75.86
2022-11-10T14:42:45.857Z,76.01
2022-11-10T14:44:48.793Z,77.01
2022-11-10T14:46:51.328Z,77.38
2022-11-10T14:48:58.589Z,78.14
2022-11-10T14:51:07.211Z,77.77
2022-11-10T14:53:20.879Z,77.65
2022-11-10T14:55:27.785Z,77.32
2022-11-10T14:57:29.828Z,78.46
2022-11-10T14:59:31.885Z,78.87
2022-11-10T15:01:38.401Z,78.70
2022-11-10T15:03:42.573Z,78.13
2022-11-10T15:05:44.829Z,78.83
2022-11-10T15:07:47.661Z,79.11
2022-11-10T15:10:30.932Z,78.65
2022-11-10T15:12:35.852Z,79.00
2022-11-10T15:14:45.650Z,79.37
2022-11-10T15:17:04.253Z,79.92
2022-11-10T15:19:26.874Z,80.12
2022-11-10T15:21:34.054Z,80.96
2022-11-10T15:23:40.911Z,81.40
2022-11-10T15:25:42.857Z,80.75
2022-11-10T15:28:00.884Z,80.75
2022-11-10T15:30:19.949Z,80.87
2022-11-10T15:32:24.973Z,80.88
2022-11-10T15:35:06.398Z,81.69
2022-11-10T15:37:31.216Z,81.50
2022-11-10T15:39:33.937Z,81.34
2022-11-10T15:41:36.969Z,80.67
2022-11-10T15:43:38.914Z,80.55
2022-11-10T15:45:43.407Z,80.38
2022-11-10T15:47:46.475Z,80.08
2022-11-10T15:49:48.523Z,80.18
2022-11-10T15:51:53.066Z,80.21
2022-11-10T15:53:55.136Z,79.93
2022-11-10T15:55:57.402Z,79.76
2022-11-10T15:57:59.519Z,80.00
2022-11-10T16:00:01.736Z,80.37
2022-11-10T16:02:25.347Z,79.71
2022-11-10T16:04:27.607Z,79.36
2022-11-10T16:06:30.807Z,79.08
2022-11-10T16:08:34.766Z,79.33
2022-11-10T16:10:37.453Z,79.43
2022-11-10T16:12:39.417Z,78.86
2022-11-10T16:14:45.490Z,78.58
2022-11-10T16:16:47.911Z,78.71
2022-11-10T16:18:51.399Z,78.75
2022-11-10T16:20:53.533Z,78.56
2022-11-10T16:22:55.999Z,78.15
2022-11-10T16:24:57.795Z,77.85
2022-11-10T16:26:59.811Z,78.13
2022-11-10T16:29:02.153Z,77.65
2022-11-10T16:31:08.418Z,77.18
2022-11-10T16:33:18.342Z,76.53
2022-11-10T16:35:21.009Z,76.28
2022-11-10T16:37:22.868Z,76.25
2022-11-10T16:39:25.348Z,75.91
2022-11-10T16:41:27.621Z,74.88
2022-11-10T16:43:31.092Z,74.84
2022-11-10T16:45:33.849Z,74.75
2022-11-10T16:47:36.011Z,75.46
2022-11-10T16:49:44.052Z,75.84
2022-11-10T16:51:49.007Z,75.66
2022-11-10T16:53:53.190Z,75.97
2022-11-10T16:55:55.376Z,75.91
2022-11-10T16:57:57.776Z,75.66
2022-11-10T17:00:00.247Z,74.81
2022-11-10T17:02:02.167Z,74.62
2022-11-10T17:04:10.224Z,74.86
2022-11-10T17:06:14.200Z,74.32
2022-11-10T17:08:23.234Z,73.74
2022-11-10T17:10:25.230Z,74.34
2022-11-10T17:12:27.596Z,73.84
2022-11-10T17:14:29.387Z,73.99
2022-11-10T17:16:35.770Z,74.35
2022-11-10T17:18:38.150Z,74.33
2022-11-10T17:20:41.995Z,73.93
2022-11-10T17:22:44.245Z,73.91
2022-11-10T17:24:56.152Z,73.79
2022-11-10T17:26:58.091Z,73.66
2022-11-10T17:29:01.062Z,74.13
2022-11-10T17:31:03.626Z,74.31
2022-11-10T17:33:06.001Z,74.62
2022-11-10T17:35:08.328Z,75.23
2022-11-10T17:37:13.283Z,75.90
2022-11-10T17:39:16.765Z,76.35
2022-11-10T17:41:20.211Z,76.16
2022-11-10T17:43:23.826Z,76.71
2022-11-10T17:45:28.115Z,76.54
2022-11-10T17:47:30.193Z,76.92
2022-11-10T17:49:32.608Z,77.39
2022-11-10T17:51:36.052Z,77.28
2022-11-10T17:53:38.086Z,77.91
2022-11-10T17:55:40.271Z,78.22
2022-11-10T17:57:42.562Z,78.19
2022-11-10T17:59:44.365Z,78.17
2022-11-10T18:01:46.826Z,78.57
2022-11-10T18:03:50.104Z,78.29
2022-11-10T18:05:52.742Z,78.38
2022-11-10T18:07:55.292Z,78.89
2022-11-10T18:09:57.285Z,78.98
2022-11-10T18:11:59.119Z,78.69
2022-11-10T18:14:02.391Z,78.67
2022-11-10T18:16:05.481Z,78.55
2022-11-10T18:18:11.183Z,78.72
2022-11-10T18:20:14.810Z,79.29
2022-11-10T18:22:16.733Z,80.03
2022-11-10T18:24:18.579Z,80.56
2022-11-10T18:26:20.740Z,80.27
2022-11-10T18:28:22.542Z,81.06
2022-11-10T18:30:24.399Z,81.21
2022-11-10T18:32:26.919Z,81.16
2022-11-10T18:34:28.753Z,81.12
2022-11-10T18:36:30.548Z,81.51
2022-11-10T18:38:32.911Z,81.68
2022-11-10T18:40:34.814Z,81.66
2022-11-10T18:42:36.803Z,81.27
2022-11-10T18:44:39.665Z,81.54
2022-11-10T18:46:41.810Z,81.46
2022-11-10T18:48:45.776Z,81.18
2022-11-10T18:50:47.949Z,81.48
2022-11-10T18:52:49.810Z,81.85
2022-11-10T18:54:51.621Z,82.32
2022-11-10T18:56:54.350Z,82.09
2022-11-10T18:58:57.055Z,82.13
2022-11-10T19:01:06.657Z,82.10
2022-11-10T19:03:09.048Z,82.87
2022-11-10T19:05:11.037Z,82.88
2022-11-10T19:07:12.963Z,83.54
2022-11-10T19:09:15.542Z,84.01
2022-11-10T19:11:20.104Z,83.95
2022-11-10T19:13:23.495Z,83.54
2022-11-10T19:15:25.989Z,83.47
2022-11-10T19:17:27.830Z,83.51
2022-11-10T19:19:29.727Z,84.03
2022-11-10T19:21:32.090Z,83.92
2022-11-10T19:23:34.019Z,84.62
2022-11-10T19:25:35.999Z,84.75
2022-11-10T19:27:38.258Z,84.73
2022-11-10T19:29:40.314Z,84.50
2022-11-10T19:31:42.391Z,84.42
2022-11-10T19:33:46.527Z,84.73
2022-11-10T19:35:48.319Z,84.90
2022-11-10T19:37:53.850Z,84.19
2022-11-10T19:39:56.029Z,84.58
2022-11-10T19:41:57.791Z,84.91
2022-11-10T19:44:00.341Z,84.79
2022-11-10T19:46:04.269Z,85.03
2022-11-10T19:48:06.097Z,84.88
2022-11-10T19:50:08.458Z,85.01
2022-11-10T19:52:10.703Z,85.31
2022-11-10T19:54:13.679Z,84.98
2022-11-10T19:56:17.287Z,85.15
2022-11-10T19:58:19.443Z,85.42
2022-11-10T20:00:21.370Z,85.40
2022-11-10T20:02:23.365Z,85.36
2022-11-10T20:04:26.811Z,85.10
2022-11-10T20:06:28.556Z,85.71
2022-11-10T20:08:31.003Z,84.92
2022-11-10T20:10:33.296Z,84.99
2022-11-10T20:12:35.109Z,85.41
2022-11-10T20:14:36.918Z,85.48
2022-11-10T20:16:39.087Z,85.39
2022-11-10T20:18:41.677Z,85.17
2022-11-10T20:20:43.459Z,85.39
2022-11-10T20:22:45.801Z,85.30
2022-11-10T20:24:51.154Z,85.33
2022-11-10T20:26:53.126Z,85.73
2022-11-10T20:28:55.382Z,85.71
2022-11-10T20:31:00.891Z,85.61
2022-11-10T20:33:05.085Z,85.83
2022-11-10T20:35:07.423Z,85.67
2022-11-10T20:37:09.226Z,85.75
2022-11-10T20:39:11.186Z,86.13
2022-11-10T20:41:19.958Z,86.55
2022-11-10T20:43:22.172Z,86.53
2022-11-10T20:45:24.302Z,86.34
2022-11-10T20:47:28.738Z,85.87
2022-11-10T20:49:31.015Z,86.19
2022-11-10T20:51:32.847Z,86.23
2022-11-10T20:53:35.052Z,86.01
2022-11-10T20:55:53.190Z,85.93
2022-11-10T20:57:55.796Z,86.15
2022-11-10T20:59:58.063Z,86.48
2022-11-10T21:02:00.025Z,85.86
2022-11-10T21:04:02.631Z,86.37
2022-11-10T21:06:06.195Z,85.77
2022-11-10T21:08:08.130Z,85.60
2022-11-10T21:10:10.030Z,86.06
2022-11-10T21:12:31.594Z,86.01
2022-11-10T21:14:33.467Z,85.98
2022-11-10T21:16:35.359Z,86.07
2022-11-10T21:18:37.909Z,86.17
2022-11-10T21:20:39.688Z,86.15
2022-11-10T21:22:41.483Z,85.86
2022-11-10T21:24:43.702Z,85.60
2022-11-10T21:26:45.488Z,85.60
2022-11-10T21:28:47.673Z,85.93
2022-11-10T21:30:50.710Z,85.73
2022-11-10T21:32:52.525Z,86.00
2022-11-10T21:34:54.348Z,85.94
2022-11-10T21:36:56.499Z,85.89
2022-11-10T21:38:59.159Z,85.55
2022-11-10T21:41:00.958Z,85.59
2022-11-10T21:43:03.740Z,85.62
2022-11-10T21:45:06.650Z,85.47
2022-11-10T21:47:09.912Z,85.46
2022-11-10T21:49:12.134Z,85.46
2022-11-10T21:51:16.552Z,85.63
2022-11-10T21:53:18.357Z,85.88
2022-11-10T21:55:20.758Z,85.97
2022-11-10T21:57:22.574Z,86.08
2022-11-10T21:59:24.356Z,86.03
2022-11-10T22:01:26.621Z,85.85
2022-11-10T22:03:29.642Z,85.63
2022-11-10T22:05:33.354Z,86.80
2022-11-10T22:07:38.297Z,86.89
2022-11-10T22:09:58.662Z,86.59
2022-11-10T22:12:18.802Z,86.13
2022-11-10T22:14:39.714Z,86.09
2022-11-10T22:17:08.283Z,86.02
2022-11-10T22:19:10.089Z,85.70
2022-11-10T22:21:12.708Z,85.29
2022-11-10T22:23:14.692Z,85.25
2022-11-10T22:25:16.488Z,85.41
2022-11-10T22:27:18.637Z,85.81
2022-11-10T22:29:21.804Z,85.96
2022-11-10T22:31:23.797Z,86.36
2022-11-10T22:33:28.828Z,86.13
2022-11-10T22:35:46.064Z,86.04
2022-11-10T22:37:47.832Z,86.73
2022-11-10T22:40:08.875Z,86.57
2022-11-10T22:42:32.118Z,86.57
2022-11-10T22:44:33.969Z,86.38
2022-11-10T22:46:48.105Z,86.51
2022-11-10T22:48:50.006Z,86.97
2022-11-10T22:50:59.452Z,86.69
2022-11-10T22:53:01.601Z,86.52
2022-11-10T22:55:03.484Z,86.69
2022-11-10T22:57:05.460Z,86.86
2022-11-10T22:59:08.070Z,86.37
2022-11-10T23:01:11.378Z,86.73
2022-11-10T23:03:14.189Z,86.33
2022-11-10T23:05:16.549Z,86.05
2022-11-10T23:07:18.357Z,86.27
2022-11-10T23:09:20.343Z,86.34
2022-11-10T23:11:25.539Z,86.19
2022-11-10T23:13:27.994Z,86.06
2022-11-10T23:15:34.664Z,86.77
2022-11-10T23:17:36.846Z,86.52
2022-11-10T23:19:38.678Z,86.66
2022-11-10T23:21:40.521Z,86.76
2022-11-10T23:23:43.585Z,86.50
2022-11-10T23:25:55.516Z,86.27
2022-11-10T23:27:57.295Z,86.44
2022-11-10T23:29:59.444Z,86.34
2022-11-10T23:32:01.276Z,86.17
2022-11-10T23:34:03.167Z,86.32
2022-11-10T23:36:06.580Z,86.14
2022-11-10T23:38:08.646Z,86.50
2022-11-10T23:40:10.841Z,86.22
2022-11-10T23:42:13.015Z,86.37
2022-11-10T23:44:14.783Z,86.52
2022-11-10T23:46:16.550Z,86.37
2022-11-10T23:48:19.500Z,86.44
2022-11-10T23:50:21.367Z,86.52
2022-11-10T23:52:23.134Z,86.67
2022-11-10T23:54:25.306Z,86.71
2022-11-10T23:56:27.111Z,86.32
2022-11-10T23:58:29.786Z,87.00
